createdAt,value
2024-05-09T00:00:40.618Z,102037.59
2024-05-09T00:01:47.140Z,102037.5
2024-05-09T00:02:52.726Z,102036.16
2024-05-09T00:03:58.270Z,102040.19
2024-05-09T00:05:04.031Z,102046.06
2024-05-09T00:06:10.203Z,102039.34
2024-05-09T00:07:15.762Z,102039.34
2024-05-09T00:08:21.292Z,102043.94
2024-05-09T00:09:26.819Z,102038.12
2024-05-09T00:10:39.845Z,102041.25
2024-05-09T00:11:48.804Z,102044.36
2024-05-09T00:12:54.400Z,102040.33
2024-05-09T00:13:59.857Z,102041.31
2024-05-09T00:15:05.366Z,102043.02
2024-05-09T00:16:10.878Z,102039.41
2024-05-09T00:17:16.558Z,102043.85
2024-05-09T00:18:22.436Z,102041.62
2024-05-09T00:19:28.351Z,102042.09
2024-05-09T00:20:41.481Z,102046.89
2024-05-09T00:21:47.102Z,102045.28
2024-05-09T00:22:52.552Z,102044.41
2024-05-09T00:23:57.976Z,102038.69
2024-05-09T00:25:03.422Z,102040.59
2024-05-09T00:26:08.926Z,102044.2
2024-05-09T00:27:14.910Z,102038.89
2024-05-09T00:28:20.305Z,102034.87
2024-05-09T00:29:26.047Z,102038.48
2024-05-09T00:30:37.746Z,102042.05
2024-05-09T00:31:43.305Z,102039.52
2024-05-09T00:32:49.090Z,102035.48
2024-05-09T00:33:54.919Z,102040.34
2024-05-09T00:35:00.778Z,102044.52
2024-05-09T00:36:06.279Z,102044.88
2024-05-09T00:37:11.678Z,102038.23
2024-05-09T00:38:17.195Z,102039.94
2024-05-09T00:39:22.721Z,102041.27
2024-05-09T00:40:41.225Z,102047.42
2024-05-09T00:41:48.678Z,102046.22
2024-05-09T00:42:54.151Z,102045.3
2024-05-09T00:43:59.654Z,102042.2
2024-05-09T00:45:05.144Z,102046.7
2024-05-09T00:46:10.561Z,102049.33
2024-05-09T00:47:16.193Z,102039.01
2024-05-09T00:48:23.186Z,102042.67
2024-05-09T00:49:28.974Z,102045.36
2024-05-09T00:50:38.775Z,102038.65
2024-05-09T00:51:45.499Z,102040.5
2024-05-09T00:52:51.092Z,102042.77
2024-05-09T00:53:56.539Z,102039.16
2024-05-09T00:55:01.950Z,102039.98
2024-05-09T00:56:07.459Z,102042.67
2024-05-09T00:57:12.915Z,102040.14
2024-05-09T00:58:18.366Z,102038.73
2024-05-09T00:59:23.889Z,102042.31
2024-05-09T01:00:40.841Z,102037.4
2024-05-09T01:01:47.391Z,102040.14
2024-05-09T01:02:53.409Z,102040.97
2024-05-09T01:03:59.167Z,102039.21
2024-05-09T01:05:04.943Z,102033.84
2024-05-09T01:06:10.630Z,102032.14
2024-05-09T01:07:16.023Z,102035.24
2024-05-09T01:08:21.678Z,102036.17
2024-05-09T01:09:27.202Z,102041.06
2024-05-09T01:10:36.909Z,102042.04
2024-05-09T01:11:42.666Z,102041.53
2024-05-09T01:12:48.378Z,102043.8
2024-05-09T01:13:53.915Z,102038.44
2024-05-09T01:14:59.391Z,102034.89
2024-05-09T01:16:04.867Z,102038.02
2024-05-09T01:17:10.423Z,102044.78
2024-05-09T01:18:16.615Z,102042.88
2024-05-09T01:19:22.852Z,102038.44
2024-05-09T01:20:43.074Z,102043.3
2024-05-09T01:21:50.364Z,102041.89
2024-05-09T01:22:55.845Z,102044.52
2024-05-09T01:24:01.304Z,102035.7
2024-05-09T01:25:06.719Z,102037.81
2024-05-09T01:26:12.335Z,102037.31
2024-05-09T01:27:17.850Z,102043.18
2024-05-09T01:28:23.235Z,102040.34
2024-05-09T01:29:28.836Z,102040.44
2024-05-09T01:30:38.548Z,102041.27
2024-05-09T01:31:44.396Z,102041.69
2024-05-09T01:32:50.351Z,102044.47
2024-05-09T01:33:56.370Z,102040.8
2024-05-09T01:35:02.405Z,102041.22
2024-05-09T01:36:07.866Z,102037.75
2024-05-09T01:37:13.305Z,102043.03
2024-05-09T01:38:19.182Z,102040.8
2024-05-09T01:39:24.732Z,102038.53
2024-05-09T01:40:40.092Z,102038.89
2024-05-09T01:41:45.960Z,102036.69
2024-05-09T01:42:51.387Z,102040.86
2024-05-09T01:43:56.874Z,102048.4
2024-05-09T01:45:02.390Z,102043.95
2024-05-09T01:46:07.798Z,102044.88
2024-05-09T01:47:13.449Z,102037.31
2024-05-09T01:48:19.318Z,102037.25
2024-05-09T01:49:25.674Z,102035.97
2024-05-09T01:50:42.682Z,102037.75
2024-05-09T01:51:48.831Z,102048.61
2024-05-09T01:52:54.287Z,102042.41
2024-05-09T01:53:59.787Z,102043.74
2024-05-09T01:55:08.068Z,102045.09
2024-05-09T01:56:13.602Z,102040.55
2024-05-09T01:57:19.116Z,102040.55
2024-05-09T01:58:24.507Z,102043.66
2024-05-09T01:59:30.411Z,102044.52
2024-05-09T02:00:43.284Z,102037.51
2024-05-09T02:01:58.797Z,102037.88
2024-05-09T02:03:04.973Z,102040.61
2024-05-09T02:04:11.101Z,102038.44
2024-05-09T02:05:17.478Z,102038.91
2024-05-09T02:06:23.399Z,102038.55
2024-05-09T02:07:28.876Z,102037.3
2024-05-09T02:08:34.707Z,102035.09
2024-05-09T02:09:40.286Z,102038.7
2024-05-09T02:10:46.310Z,102028.89
2024-05-09T02:11:52.601Z,102029.81
2024-05-09T02:12:58.287Z,102032.97
2024-05-09T02:14:03.799Z,102031.27
2024-05-09T02:15:09.437Z,102031.69
2024-05-09T02:16:14.836Z,102034.02
2024-05-09T02:17:20.586Z,102031.78
2024-05-09T02:18:26.729Z,102035.8
2024-05-09T02:19:33.013Z,102029.98
2024-05-09T02:20:38.928Z,102029.09
2024-05-09T02:21:44.532Z,102028.23
2024-05-09T02:22:49.963Z,102026.05
2024-05-09T02:23:55.578Z,102028.73
2024-05-09T02:25:00.976Z,102020.74
2024-05-09T02:26:06.456Z,102023.84
2024-05-09T02:27:14.167Z,102022.5
2024-05-09T02:28:19.582Z,102024.26
2024-05-09T02:29:25.164Z,102027.81
2024-05-09T02:30:42.339Z,102025.18
2024-05-09T02:31:49.376Z,102026.47
2024-05-09T02:32:55.180Z,102026.88
2024-05-09T02:34:01.179Z,102031.33
2024-05-09T02:35:07.288Z,102031.33
2024-05-09T02:36:12.760Z,102028.73
2024-05-09T02:37:18.183Z,102030.55
2024-05-09T02:38:23.644Z,102032.76
2024-05-09T02:39:29.148Z,102026.94
2024-05-09T02:40:40.245Z,102024.83
2024-05-09T02:41:46.099Z,102033.37
2024-05-09T02:42:51.453Z,102031.53
2024-05-09T02:43:56.890Z,102032.88
2024-05-09T02:45:02.377Z,102029.36
2024-05-09T02:46:07.774Z,102030.7
2024-05-09T02:47:13.518Z,102030.7
2024-05-09T02:48:19.409Z,102028.48
2024-05-09T02:49:25.500Z,102035.2
2024-05-09T02:50:40.336Z,102031.23
2024-05-09T02:51:46.465Z,102029.05
2024-05-09T02:52:51.963Z,102031.31
2024-05-09T02:53:57.453Z,102030.83
2024-05-09T02:55:02.835Z,102031.31
2024-05-09T02:56:08.441Z,102037.52
2024-05-09T02:57:13.960Z,102029.47
2024-05-09T02:58:19.410Z,102031.73
2024-05-09T02:59:25.156Z,102028.63
2024-05-09T03:00:41.776Z,102025.47
2024-05-09T03:01:48.605Z,102029.08
2024-05-09T03:02:54.701Z,102034.42
2024-05-09T03:04:00.772Z,102027.7
2024-05-09T03:05:06.543Z,102036.2
2024-05-09T03:06:12.081Z,102035.76
2024-05-09T03:07:20.457Z,102028.91
2024-05-09T03:08:25.985Z,102036.28
2024-05-09T03:09:31.487Z,102036.58
2024-05-09T03:10:40.195Z,102035.54
2024-05-09T03:11:46.165Z,102039.06
2024-05-09T03:12:51.890Z,102041.73
2024-05-09T03:13:57.359Z,102038.22
2024-05-09T03:15:02.810Z,102043.59
2024-05-09T03:16:08.196Z,102035.45
2024-05-09T03:17:13.703Z,102037.3
2024-05-09T03:18:19.302Z,102042.16
2024-05-09T03:19:25.106Z,102040.4
2024-05-09T03:20:37.028Z,102039.47
2024-05-09T03:21:42.977Z,102040.76
2024-05-09T03:22:48.422Z,102036.73
2024-05-09T03:23:54.289Z,102043.86
2024-05-09T03:24:59.715Z,102046.91
2024-05-09T03:26:05.270Z,102046.84
2024-05-09T03:27:10.905Z,102040.55
2024-05-09T03:28:16.312Z,102045.5
2024-05-09T03:29:21.836Z,102049.95
2024-05-09T03:30:42.102Z,102043.23
2024-05-09T03:31:48.837Z,102042.41
2024-05-09T03:32:54.753Z,102048.04
2024-05-09T03:34:00.711Z,102050.19
2024-05-09T03:35:06.576Z,102046.59
2024-05-09T03:36:12.881Z,102046.89
2024-05-09T03:37:18.339Z,102042.92
2024-05-09T03:38:23.881Z,102042.62
2024-05-09T03:39:29.426Z,102047.92
2024-05-09T03:40:34.852Z,102044.02
2024-05-09T03:41:40.393Z,102033.28
2024-05-09T03:42:45.906Z,102037.81
2024-05-09T03:43:51.449Z,102041.78
2024-05-09T03:44:56.988Z,102028.78
2024-05-09T03:46:02.390Z,102038.03
2024-05-09T03:47:08.049Z,102037.97
2024-05-09T03:48:14.400Z,102038.84
2024-05-09T03:49:20.471Z,102032.04
2024-05-09T03:50:35.604Z,102030.78
2024-05-09T03:51:42.494Z,102020.16
2024-05-09T03:52:47.955Z,102025.53
2024-05-09T03:53:53.427Z,102026.4
2024-05-09T03:54:58.924Z,102024.13
2024-05-09T03:56:04.388Z,102029.71
2024-05-09T03:57:09.888Z,102027.69
2024-05-09T03:58:15.269Z,102029.19
2024-05-09T03:59:20.795Z,102028.27
2024-05-09T04:00:38.363Z,102029.44
2024-05-09T04:01:45.830Z,102023.63
2024-05-09T04:02:51.704Z,102028.62
2024-05-09T04:03:57.704Z,102027.68
2024-05-09T04:05:03.289Z,102027.69
2024-05-09T04:06:08.903Z,102032.48
2024-05-09T04:07:14.329Z,102031.51
2024-05-09T04:08:19.857Z,102035.82
2024-05-09T04:09:25.564Z,102031.97
2024-05-09T04:10:35.861Z,102029.48
2024-05-09T04:11:41.777Z,102029.32
2024-05-09T04:12:47.286Z,102034.98
2024-05-09T04:13:52.901Z,102029.8
2024-05-09T04:14:58.410Z,102040.66
2024-05-09T04:16:03.831Z,102033.55
2024-05-09T04:17:09.420Z,102025.98
2024-05-09T04:18:15.138Z,102031.53
2024-05-09T04:19:21.016Z,102036.48
2024-05-09T04:20:40.413Z,102040.7
2024-05-09T04:21:46.785Z,102046.48
2024-05-09T04:22:52.271Z,102036.38
2024-05-09T04:23:57.766Z,102033.44
2024-05-09T04:25:03.202Z,102040.64
2024-05-09T04:26:08.737Z,102034.31
2024-05-09T04:27:14.232Z,102040.64
2024-05-09T04:28:19.644Z,102036.83
2024-05-09T04:29:25.214Z,102037.35
2024-05-09T04:30:41.154Z,102032.55
2024-05-09T04:31:48.039Z,102034.87
2024-05-09T04:32:53.880Z,102033.67
2024-05-09T04:33:59.860Z,102039.39
2024-05-09T04:35:05.759Z,102031.47
2024-05-09T04:36:11.208Z,102036.55
2024-05-09T04:37:16.690Z,102041.91
2024-05-09T04:38:22.248Z,102037.02
2024-05-09T04:39:27.736Z,102037.17
2024-05-09T04:40:37.983Z,102037.22
2024-05-09T04:41:43.715Z,102039.54
2024-05-09T04:42:51.583Z,102041.86
2024-05-09T04:43:57.144Z,102043.25
2024-05-09T04:45:02.650Z,102043.67
2024-05-09T04:46:08.025Z,102039.23
2024-05-09T04:47:13.882Z,102037.58
2024-05-09T04:48:20.007Z,102034.98
2024-05-09T04:49:26.166Z,102040.82
2024-05-09T04:50:39.776Z,102034.13
2024-05-09T04:51:45.610Z,102036.49
2024-05-09T04:52:51.070Z,102032.42
2024-05-09T04:53:56.592Z,102035.16
2024-05-09T04:55:01.965Z,102037.56
2024-05-09T04:56:07.524Z,102034.16
2024-05-09T04:57:12.994Z,102037.3
2024-05-09T04:58:18.397Z,102045.65
2024-05-09T04:59:23.861Z,102033.34
2024-05-09T05:00:39.601Z,102037.86
2024-05-09T05:01:46.455Z,102040.55
2024-05-09T05:02:52.288Z,102035.19
2024-05-09T05:03:58.814Z,102038.89
2024-05-09T05:05:05.096Z,102042.5
2024-05-09T05:06:10.782Z,102039.87
2024-05-09T05:07:16.217Z,102034.09
2024-05-09T05:08:21.739Z,102038.53
2024-05-09T05:09:28.180Z,102032.81
2024-05-09T05:10:38.095Z,102036.41
2024-05-09T05:11:43.915Z,102041.3
2024-05-09T05:12:49.490Z,102042.69
2024-05-09T05:13:54.950Z,102039.14
2024-05-09T05:15:00.476Z,102040.57
2024-05-09T05:16:05.910Z,102043.66
2024-05-09T05:17:11.349Z,102045
2024-05-09T05:18:17.304Z,102047.8
2024-05-09T05:19:23.633Z,102048.72
2024-05-09T05:20:35.311Z,102043.88
2024-05-09T05:21:40.809Z,102047.03
2024-05-09T05:22:46.280Z,102042.04
2024-05-09T05:23:51.817Z,102047.48
2024-05-09T05:24:57.196Z,102047.8
2024-05-09T05:26:05.587Z,102044.3
2024-05-09T05:27:11.067Z,102050.08
2024-05-09T05:28:16.510Z,102040.7
2024-05-09T05:29:22.499Z,102039.36
2024-05-09T05:30:34.966Z,102042.96
2024-05-09T05:31:40.672Z,102043.83
2024-05-09T05:32:46.481Z,102047.4
2024-05-09T05:33:52.372Z,102041.2
2024-05-09T05:34:58.063Z,102037.8
2024-05-09T05:36:03.563Z,102045.84
2024-05-09T05:37:08.991Z,102040.84
2024-05-09T05:38:14.573Z,102036.31
2024-05-09T05:39:20.112Z,102041.81
2024-05-09T05:40:37.946Z,102039.97
2024-05-09T05:41:45.416Z,102042.12
2024-05-09T05:42:50.828Z,102039.92
2024-05-09T05:43:56.271Z,102040.84
2024-05-09T05:45:01.742Z,102036.31
2024-05-09T05:46:10.177Z,102039.97
2024-05-09T05:47:15.865Z,102039.45
2024-05-09T05:48:21.759Z,102039.92
2024-05-09T05:49:27.886Z,102037.3
2024-05-09T05:50:38.926Z,102039.14
2024-05-09T05:51:44.575Z,102039.55
2024-05-09T05:52:50.038Z,102033.36
2024-05-09T05:53:55.616Z,102032.86
2024-05-09T05:55:01.040Z,102036.87
2024-05-09T05:56:06.639Z,102039.19
2024-05-09T05:57:12.111Z,102032.5
2024-05-09T05:58:17.602Z,102033.47
2024-05-09T05:59:23.090Z,102033.89
2024-05-09T06:00:39.515Z,102035.73
2024-05-09T06:01:47.391Z,102037.99
2024-05-09T06:02:53.319Z,102037.18
2024-05-09T06:03:59.050Z,102032.73
2024-05-09T06:05:04.900Z,102034.08
2024-05-09T06:06:10.717Z,102036.29
2024-05-09T06:07:16.164Z,102038.41
2024-05-09T06:08:21.923Z,102038.83
2024-05-09T06:09:29.235Z,102039.8
2024-05-09T06:10:41.601Z,102043.04
2024-05-09T06:11:47.847Z,102043.96
2024-05-09T06:12:53.454Z,102043.96
2024-05-09T06:13:58.995Z,102037.31
2024-05-09T06:15:04.478Z,102045.41
2024-05-09T06:16:09.899Z,102042.37
2024-05-09T06:17:15.523Z,102035.61
2024-05-09T06:18:22.011Z,102037.88
2024-05-09T06:19:28.373Z,102038.23
2024-05-09T06:20:39.009Z,102039.95
2024-05-09T06:21:44.771Z,102040.78
2024-05-09T06:22:50.220Z,102039.49
2024-05-09T06:23:55.693Z,102040
2024-05-09T06:25:01.160Z,102040.47
2024-05-09T06:26:09.279Z,102045.97
2024-05-09T06:27:14.765Z,102039.77
2024-05-09T06:28:20.224Z,102041.11
2024-05-09T06:29:25.820Z,102044.77
2024-05-09T06:30:41.692Z,102046.58
2024-05-09T06:31:48.423Z,102046.02
2024-05-09T06:32:54.174Z,102036.95
2024-05-09T06:34:00.252Z,102033.44
2024-05-09T06:35:06.075Z,102039.63
2024-05-09T06:36:11.618Z,102034.59
2024-05-09T06:37:16.999Z,102034.59
2024-05-09T06:38:22.562Z,102033.25
2024-05-09T06:39:28.056Z,102031.45
2024-05-09T06:40:41.844Z,102033.16
2024-05-09T06:41:49.257Z,102034.5
2024-05-09T06:42:54.675Z,102023.31
2024-05-09T06:44:00.319Z,102034.95
2024-05-09T06:45:05.888Z,102028.72
2024-05-09T06:46:11.275Z,102021.25
2024-05-09T06:47:16.825Z,102027.08
2024-05-09T06:48:23.704Z,102023.05
2024-05-09T06:49:29.722Z,102026.74
2024-05-09T06:50:40.317Z,102026.8
2024-05-09T06:51:46.196Z,102023.2
2024-05-09T06:52:51.679Z,102030.63
2024-05-09T06:53:57.140Z,102029.64
2024-05-09T06:55:02.586Z,102023.78
2024-05-09T06:56:08.058Z,102026.19
2024-05-09T06:57:13.593Z,102023.98
2024-05-09T06:58:18.954Z,102024.84
2024-05-09T06:59:24.490Z,102028.36
2024-05-09T07:00:40.806Z,102031.55
2024-05-09T07:01:47.647Z,102030.63
2024-05-09T07:02:53.306Z,102033.66
2024-05-09T07:03:59.135Z,102022.89
2024-05-09T07:05:05.096Z,102023.31
2024-05-09T07:06:11.045Z,102021.97
2024-05-09T07:07:16.590Z,102022.39
2024-05-09T07:08:22.094Z,102015.69
2024-05-09T07:09:27.741Z,102018.38
2024-05-09T07:10:37.422Z,102012.17
2024-05-09T07:11:43.365Z,102015.27
2024-05-09T07:12:48.954Z,102015.75
2024-05-09T07:13:54.486Z,102010.58
2024-05-09T07:14:59.961Z,102013.96
2024-05-09T07:16:05.431Z,102009.63
2024-05-09T07:17:11.067Z,102012.73
2024-05-09T07:18:19.413Z,102009.08
2024-05-09T07:19:26.205Z,102016.19
2024-05-09T07:20:36.447Z,102008.46
2024-05-09T07:21:42.087Z,102008.32
2024-05-09T07:22:47.505Z,102007.34
2024-05-09T07:23:53.165Z,102005.12
2024-05-09T07:24:58.635Z,102005.12
2024-05-09T07:26:04.086Z,102006.09
2024-05-09T07:27:12.568Z,102006.52
2024-05-09T07:28:18.014Z,102007.85
2024-05-09T07:29:23.928Z,102003.89
2024-05-09T07:30:35.467Z,102006.01
2024-05-09T07:31:40.920Z,102004.19
2024-05-09T07:32:46.982Z,102001.88
2024-05-09T07:33:53.430Z,102001.94
2024-05-09T07:34:59.136Z,102005.03
2024-05-09T07:36:04.685Z,102006.73
2024-05-09T07:37:10.073Z,102009.77
2024-05-09T07:38:15.602Z,102011.48
2024-05-09T07:39:21.230Z,102017.39
2024-05-09T07:40:37.080Z,102016.61
2024-05-09T07:41:42.806Z,102013.06
2024-05-09T07:42:48.327Z,102008.77
2024-05-09T07:43:53.823Z,102005.64
2024-05-09T07:45:33.190Z,102006.87
2024-05-09T07:54:43.065Z,102000.96
2024-05-09T07:55:48.868Z,102002.25
2024-05-09T07:56:55.201Z,102000.02
2024-05-09T07:58:01.011Z,102009.81
2024-05-09T07:59:06.536Z,102006.57
2024-05-09T08:00:20.096Z,102009.62
2024-05-09T08:01:35.846Z,102007.44
2024-05-09T08:02:41.718Z,102010.03
2024-05-09T08:03:47.785Z,102002.5
2024-05-09T08:04:54.047Z,102006.57
2024-05-09T08:05:59.673Z,102001.99
2024-05-09T08:07:05.277Z,102003.84
2024-05-09T08:08:10.746Z,102000.6
2024-05-09T08:09:22.331Z,101993.91
2024-05-09T08:10:30.658Z,101996.52
2024-05-09T08:11:36.299Z,101992.51
2024-05-09T08:12:41.837Z,101994.27
2024-05-09T08:13:47.269Z,101993.84
2024-05-09T08:14:52.675Z,101994.68
2024-05-09T08:15:58.186Z,101991.17
2024-05-09T08:17:03.790Z,101993.34
2024-05-09T08:18:09.487Z,101991.95
2024-05-09T08:19:15.526Z,101992
2024-05-09T08:20:34.953Z,101992.87
2024-05-09T08:21:41.007Z,101991.95
2024-05-09T08:22:49.458Z,101989.69
2024-05-09T08:23:54.856Z,101983.49
2024-05-09T08:25:00.368Z,101981.59
2024-05-09T08:26:05.811Z,101987.78
2024-05-09T08:27:11.974Z,101985.61
2024-05-09T08:28:18.673Z,101982.09
2024-05-09T08:29:24.263Z,101976.65
2024-05-09T08:30:38.152Z,101976.23
2024-05-09T08:31:44.281Z,101974.89
2024-05-09T08:32:50.096Z,101983.77
2024-05-09T08:33:56.131Z,101981.17
2024-05-09T08:35:02.110Z,101983.77
2024-05-09T08:36:07.593Z,101982.01
2024-05-09T08:37:24.666Z,101979.69
2024-05-09T08:38:39.089Z,101977.52
2024-05-09T08:39:44.646Z,101985.05
2024-05-09T08:40:50.381Z,101986.95
2024-05-09T08:41:55.990Z,101982.42
2024-05-09T08:43:01.549Z,101981.09
2024-05-09T08:44:07.410Z,101981.95
2024-05-09T08:45:12.820Z,101981.9
2024-05-09T08:46:18.321Z,101981.9
2024-05-09T08:47:24.153Z,101982.31
2024-05-09T08:48:30.157Z,101980.55
2024-05-09T08:49:39.151Z,101981.81
2024-05-09T08:50:47.396Z,101988.15
2024-05-09T08:51:53.037Z,101987.26
2024-05-09T08:52:58.594Z,101983.3
2024-05-09T08:54:03.968Z,101979.69
2024-05-09T08:55:09.660Z,101978.3
2024-05-09T08:56:15.396Z,101980
2024-05-09T08:57:20.856Z,101979.63
2024-05-09T08:58:26.339Z,101977.94
2024-05-09T08:59:31.752Z,101971.18
2024-05-09T09:00:39.345Z,101970.26
2024-05-09T09:01:45.318Z,101976.95
2024-05-09T09:02:51.080Z,101979.69
2024-05-09T09:03:56.874Z,101973.35
2024-05-09T09:05:02.823Z,101978.3
2024-05-09T09:06:08.432Z,101977.38
2024-05-09T09:07:13.947Z,101980.98
2024-05-09T09:08:19.634Z,101987.12
2024-05-09T09:09:25.058Z,101986.19
2024-05-09T09:10:34.343Z,101987.89
2024-05-09T09:11:40.231Z,101979.13
2024-05-09T09:12:45.857Z,101973.72
2024-05-09T09:13:51.380Z,101967.94
2024-05-09T09:14:56.865Z,101967.16
2024-05-09T09:16:02.438Z,101976.54
2024-05-09T09:17:08.346Z,101979.13
2024-05-09T09:18:14.154Z,101975.61
2024-05-09T09:19:20.278Z,101972.21
2024-05-09T09:20:36.237Z,101974.22
2024-05-09T09:21:42.701Z,101977.21
2024-05-09T09:22:48.207Z,101976.8
2024-05-09T09:23:53.600Z,101978.19
2024-05-09T09:24:59.024Z,101970.56
2024-05-09T09:26:04.525Z,101978.55
2024-05-09T09:27:09.966Z,101972.77
2024-05-09T09:28:15.700Z,101985.3
2024-05-09T09:29:21.479Z,101976.69
2024-05-09T09:30:38.248Z,101978.8
2024-05-09T09:31:43.987Z,101979.84
2024-05-09T09:32:49.545Z,101981.48
2024-05-09T09:33:55.613Z,101982.41
2024-05-09T09:35:01.730Z,101983.6
2024-05-09T09:36:12.545Z,101980.39
2024-05-09T09:37:18.193Z,101980.39
2024-05-09T09:38:23.787Z,101980.03
2024-05-09T09:39:29.305Z,101976.91
2024-05-09T09:40:40.793Z,101983.38
2024-05-09T09:41:53.646Z,101981.75
2024-05-09T09:42:59.153Z,101979.41
2024-05-09T09:44:04.721Z,101982.82
2024-05-09T09:45:12.308Z,101980.09
2024-05-09T09:46:18.036Z,101982.27
2024-05-09T09:47:23.810Z,101979.67
2024-05-09T09:48:29.523Z,101979.22
2024-05-09T09:49:35.547Z,101984.05
2024-05-09T09:50:41.041Z,101981.42
2024-05-09T09:51:46.583Z,101981.79
2024-05-09T09:52:52.084Z,101981.64
2024-05-09T09:53:57.467Z,101978.55
2024-05-09T09:55:03.016Z,101976.37
2024-05-09T09:56:08.480Z,101978.13
2024-05-09T09:57:13.978Z,101980.3
2024-05-09T09:58:19.783Z,101973.19
2024-05-09T09:59:25.588Z,101982.15
2024-05-09T10:00:35.078Z,101974.95
2024-05-09T10:01:41.111Z,101972.27
2024-05-09T10:02:46.726Z,101970.81
2024-05-09T10:03:52.450Z,101963.67
2024-05-09T10:04:58.594Z,101972.72
2024-05-09T10:06:04.140Z,101962.84
2024-05-09T10:07:09.728Z,101965.66
2024-05-09T10:08:15.371Z,101965.2
2024-05-09T10:09:20.864Z,101967.63
2024-05-09T10:10:34.126Z,101964.12
2024-05-09T10:11:49.315Z,101961.86
2024-05-09T10:13:04.513Z,101971.18
2024-05-09T10:14:10.501Z,101965.37
2024-05-09T10:15:15.938Z,101961.44
2024-05-09T10:16:21.726Z,101959.73
2024-05-09T10:17:27.817Z,101960.02
2024-05-09T10:18:35.929Z,101966.3
2024-05-09T10:19:41.825Z,101957.33
2024-05-09T10:20:47.437Z,101963.25
2024-05-09T10:21:52.971Z,101956.91
2024-05-09T10:22:58.564Z,101964.59
2024-05-09T10:24:04.031Z,101962.41
2024-05-09T10:25:09.508Z,101965.45
2024-05-09T10:26:14.998Z,101960.52
2024-05-09T10:27:20.376Z,101957.33
2024-05-09T10:28:25.762Z,101965.87
2024-05-09T10:29:31.164Z,101963.05
2024-05-09T10:30:38.182Z,101965.87
2024-05-09T10:31:47.818Z,101960.91
2024-05-09T10:32:53.430Z,101959.23
2024-05-09T10:33:59.505Z,101971.59
2024-05-09T10:35:05.554Z,101964.9
2024-05-09T10:36:11.325Z,101960.3
2024-05-09T10:37:16.920Z,101957.98
2024-05-09T10:38:22.514Z,101962.69
2024-05-09T10:39:27.932Z,101963
2024-05-09T10:40:33.737Z,101962.44
2024-05-09T10:41:39.292Z,101962.44
2024-05-09T10:42:44.781Z,101959.84
2024-05-09T10:43:50.354Z,101960.73
2024-05-09T10:44:56.073Z,101959.39
2024-05-09T10:46:01.709Z,101957.22
2024-05-09T10:47:07.463Z,101956.8
2024-05-09T10:48:13.168Z,101957.42
2024-05-09T10:49:19.242Z,101957.33
2024-05-09T10:50:33.770Z,101959.53
2024-05-09T10:51:40.112Z,101964.48
2024-05-09T10:52:45.637Z,101958.2
2024-05-09T10:53:51.044Z,101959.17
2024-05-09T10:54:56.645Z,101960.94
2024-05-09T10:56:02.224Z,101964.9
2024-05-09T10:57:07.658Z,101963.61
2024-05-09T10:58:13.387Z,101960.02
2024-05-09T10:59:19.021Z,101961.3
2024-05-09T11:00:35.482Z,101963.05
2024-05-09T11:01:42.496Z,101958.05
2024-05-09T11:02:48.163Z,101958.56
2024-05-09T11:03:54.111Z,101957.7
2024-05-09T11:04:59.995Z,101948.3
2024-05-09T11:06:05.794Z,101951.95
2024-05-09T11:07:11.868Z,101946.51
2024-05-09T11:08:17.436Z,101946.56
2024-05-09T11:09:22.875Z,101954.12
2024-05-09T11:10:35.410Z,101950.45
2024-05-09T11:11:40.929Z,101953.44
2024-05-09T11:12:46.526Z,101951.73
2024-05-09T11:13:52.029Z,101937.28
2024-05-09T11:14:57.429Z,101950.67
2024-05-09T11:16:03.019Z,101949.16
2024-05-09T11:17:09.059Z,101940.56
2024-05-09T11:18:14.760Z,101938.39
2024-05-09T11:19:21.202Z,101932.47
2024-05-09T11:20:34.606Z,101941.34
2024-05-09T11:21:41.159Z,101942.02
2024-05-09T11:22:46.904Z,101942.06
2024-05-09T11:23:52.374Z,101942.43
2024-05-09T11:24:57.906Z,101941.09
2024-05-09T11:26:03.421Z,101937.94
2024-05-09T11:27:08.808Z,101933.98
2024-05-09T11:28:14.520Z,101936.19
2024-05-09T11:29:21.263Z,101933.61
2024-05-09T11:30:33.279Z,101936.23
2024-05-09T11:31:39.054Z,101934.28
2024-05-09T11:32:44.803Z,101938.72
2024-05-09T11:33:50.594Z,101932.02
2024-05-09T11:34:56.184Z,101923.48
2024-05-09T11:36:01.603Z,101928
2024-05-09T11:37:07.125Z,101918.2
2024-05-09T11:38:12.640Z,101917.14
2024-05-09T11:39:18.156Z,101922.95
2024-05-09T11:40:33.937Z,101921.05
2024-05-09T11:41:40.098Z,101921.1
2024-05-09T11:42:45.743Z,101918.36
2024-05-09T11:43:53.998Z,101918.36
2024-05-09T11:44:59.390Z,101918.78
2024-05-09T11:46:05.765Z,101915.27
2024-05-09T11:47:11.430Z,101911.61
2024-05-09T11:48:17.100Z,101913
2024-05-09T11:49:26.982Z,101912.5
2024-05-09T11:50:37.457Z,101914.34
2024-05-09T11:51:43.114Z,101914.2
2024-05-09T11:52:48.673Z,101915.02
2024-05-09T11:53:54.083Z,101917.69
2024-05-09T11:54:59.591Z,101922.13
2024-05-09T11:56:05.329Z,101918.05
2024-05-09T11:57:10.763Z,101922.48
2024-05-09T11:58:16.251Z,101920.23
2024-05-09T11:59:23.169Z,101916.15
2024-05-09T12:00:38.040Z,101908.11
2024-05-09T12:01:43.902Z,101906.52
2024-05-09T12:02:49.641Z,101911.97
2024-05-09T12:03:55.594Z,101908.48
2024-05-09T12:05:01.711Z,101902.28
2024-05-09T12:06:07.694Z,101910.19
2024-05-09T12:07:14.448Z,101902.14
2024-05-09T12:08:20.015Z,101909.7
2024-05-09T12:09:25.484Z,101899.35
2024-05-09T12:10:36.926Z,101908.22
2024-05-09T12:11:42.842Z,101902.86
2024-05-09T12:12:49.389Z,101904.2
2024-05-09T12:13:54.847Z,101907.8
2024-05-09T12:15:00.283Z,101902.03
2024-05-09T12:16:05.768Z,101911.41
2024-05-09T12:17:11.466Z,101914.03
2024-05-09T12:18:17.161Z,101921.56
2024-05-09T12:19:22.862Z,101908.11
2024-05-09T12:20:39.431Z,101912.97
2024-05-09T12:21:45.682Z,101908.95
2024-05-09T12:22:51.325Z,101903.17
2024-05-09T12:23:56.701Z,101905.8
2024-05-09T12:25:02.270Z,101907.08
2024-05-09T12:26:07.805Z,101903.53
2024-05-09T12:27:13.198Z,101908.89
2024-05-09T12:28:19.019Z,101908.83
2024-05-09T12:29:24.699Z,101906.09
2024-05-09T12:30:40.086Z,101896.72
2024-05-09T12:31:46.831Z,101898.47
2024-05-09T12:32:52.725Z,101901.57
2024-05-09T12:33:58.668Z,101898.89
2024-05-09T12:35:04.433Z,101890.48
2024-05-09T12:36:09.842Z,101889.16
2024-05-09T12:37:15.457Z,101888.67
2024-05-09T12:38:20.985Z,101886.83
2024-05-09T12:39:26.368Z,101884.2
2024-05-09T12:40:39.501Z,101874.41
2024-05-09T12:41:45.227Z,101877.45
2024-05-09T12:42:50.703Z,101876.47
2024-05-09T12:43:56.301Z,101876.53
2024-05-09T12:45:01.766Z,101872.51
2024-05-09T12:46:07.293Z,101878.31
2024-05-09T12:47:12.813Z,101876.98
2024-05-09T12:48:18.656Z,101880.07
2024-05-09T12:49:24.542Z,101870.19
2024-05-09T12:50:35.514Z,101876.83
2024-05-09T12:51:41.342Z,101874.15
2024-05-09T12:52:46.805Z,101877.75